sensor_id;sensor_type;location;lat;lon;timestamp;temperature;humidity
72380;SHT30;60354;47.798;12.472;2023-06-26T00:01:30;17.60;66.05
72380;SHT30;60354;47.798;12.472;2023-06-26T00:03:59;17.74;65.51
72380;SHT30;60354;47.798;12.472;2023-06-26T00:06:25;17.53;65.88
72380;SHT30;60354;47.798;12.472;2023-06-26T00:08:52;17.57;65.58
72380;SHT30;60354;47.798;12.472;2023-06-26T00:11:19;17.54;65.63
72380;SHT30;60354;47.798;12.472;2023-06-26T00:13:44;17.58;65.96
72380;SHT30;60354;47.798;12.472;2023-06-26T00:16:10;17.44;66.03
72380;SHT30;60354;47.798;12.472;2023-06-26T00:18:35;17.47;66.55
72380;SHT30;60354;47.798;12.472;2023-06-26T00:21:01;17.47;66.19
72380;SHT30;60354;47.798;12.472;2023-06-26T00:23:26;17.48;65.41
72380;SHT30;60354;47.798;12.472;2023-06-26T00:25:53;17.51;65.80
72380;SHT30;60354;47.798;12.472;2023-06-26T00:28:18;17.41;65.65
72380;SHT30;60354;47.798;12.472;2023-06-26T00:30:44;17.43;65.51
72380;SHT30;60354;47.798;12.472;2023-06-26T00:33:09;17.27;65.87
72380;SHT30;60354;47.798;12.472;2023-06-26T00:35:35;17.33;65.57
72380;SHT30;60354;47.798;12.472;2023-06-26T00:38:03;17.31;65.86
72380;SHT30;60354;47.798;12.472;2023-06-26T00:40:28;17.46;65.35
72380;SHT30;60354;47.798;12.472;2023-06-26T00:42:54;17.34;65.89
72380;SHT30;60354;47.798;12.472;2023-06-26T00:45:20;17.27;66.60
72380;SHT30;60354;47.798;12.472;2023-06-26T00:47:46;17.40;65.77
72380;SHT30;60354;47.798;12.472;2023-06-26T00:50:12;17.40;65.83
72380;SHT30;60354;47.798;12.472;2023-06-26T00:52:38;17.26;66.08
72380;SHT30;60354;47.798;12.472;2023-06-26T00:55:05;17.05;66.56
72380;SHT30;60354;47.798;12.472;2023-06-26T00:57:31;17.19;66.09
72380;SHT30;60354;47.798;12.472;2023-06-26T00:59:56;17.22;66.10
72380;SHT30;60354;47.798;12.472;2023-06-26T01:02:22;17.19;66.78
72380;SHT30;60354;47.798;12.472;2023-06-26T01:04:50;17.09;66.60
72380;SHT30;60354;47.798;12.472;2023-06-26T01:07:16;17.07;67.01
72380;SHT30;60354;47.798;12.472;2023-06-26T01:09:46;16.69;67.83
72380;SHT30;60354;47.798;12.472;2023-06-26T01:12:11;16.73;67.22
72380;SHT30;60354;47.798;12.472;2023-06-26T01:14:37;16.69;67.95
72380;SHT30;60354;47.798;12.472;2023-06-26T01:17:03;16.85;66.86
72380;SHT30;60354;47.798;12.472;2023-06-26T01:19:30;16.87;66.62
72380;SHT30;60354;47.798;12.472;2023-06-26T01:24:44;16.89;66.25
72380;SHT30;60354;47.798;12.472;2023-06-26T01:27:13;16.95;65.17
72380;SHT30;60354;47.798;12.472;2023-06-26T01:29:41;17.10;65.59
72380;SHT30;60354;47.798;12.472;2023-06-26T01:32:08;17.09;65.99
72380;SHT30;60354;47.798;12.472;2023-06-26T01:34:34;17.02;65.59
72380;SHT30;60354;47.798;12.472;2023-06-26T01:37:00;17.03;65.28
72380;SHT30;60354;47.798;12.472;2023-06-26T01:39:25;17.09;65.37
72380;SHT30;60354;47.798;12.472;2023-06-26T01:41:51;17.07;65.18
72380;SHT30;60354;47.798;12.472;2023-06-26T01:44:27;17.06;65.60
72380;SHT30;60354;47.798;12.472;2023-06-26T01:55:00;16.83;65.90
72380;SHT30;60354;47.798;12.472;2023-06-26T01:57:30;16.87;64.89
72380;SHT30;60354;47.798;12.472;2023-06-26T01:59:56;16.93;65.58
72380;SHT30;60354;47.798;12.472;2023-06-26T02:02:24;16.79;65.90
72380;SHT30;60354;47.798;12.472;2023-06-26T02:04:50;16.40;67.38
72380;SHT30;60354;47.798;12.472;2023-06-26T02:07:15;16.16;68.68
72380;SHT30;60354;47.798;12.472;2023-06-26T02:09:41;16.18;68.01
72380;SHT30;60354;47.798;12.472;2023-06-26T02:12:07;16.17;68.13
72380;SHT30;60354;47.798;12.472;2023-06-26T02:14:33;16.18;68.08
72380;SHT30;60354;47.798;12.472;2023-06-26T02:16:58;16.18;68.06
72380;SHT30;60354;47.798;12.472;2023-06-26T02:19:25;16.22;67.34
72380;SHT30;60354;47.798;12.472;2023-06-26T02:21:55;16.29;67.65
72380;SHT30;60354;47.798;12.472;2023-06-26T02:24:23;16.22;68.08
72380;SHT30;60354;47.798;12.472;2023-06-26T02:26:48;16.27;67.98
72380;SHT30;60354;47.798;12.472;2023-06-26T02:29:14;16.38;67.32
72380;SHT30;60354;47.798;12.472;2023-06-26T02:31:40;16.37;67.98
72380;SHT30;60354;47.798;12.472;2023-06-26T02:34:06;16.24;68.58
72380;SHT30;60354;47.798;12.472;2023-06-26T02:36:32;16.24;68.21
72380;SHT30;60354;47.798;12.472;2023-06-26T02:38:58;16.20;68.59
72380;SHT30;60354;47.798;12.472;2023-06-26T02:41:24;16.18;68.10
72380;SHT30;60354;47.798;12.472;2023-06-26T02:43:50;16.10;68.79
72380;SHT30;60354;47.798;12.472;2023-06-26T02:46:16;16.10;68.09
72380;SHT30;60354;47.798;12.472;2023-06-26T02:48:41;16.01;68.93
72380;SHT30;60354;47.798;12.472;2023-06-26T02:51:07;16.00;69.18
72380;SHT30;60354;47.798;12.472;2023-06-26T02:53:33;16.01;68.98
72380;SHT30;60354;47.798;12.472;2023-06-26T02:55:58;16.03;68.98
72380;SHT30;60354;47.798;12.472;2023-06-26T02:58:24;16.06;68.87
72380;SHT30;60354;47.798;12.472;2023-06-26T03:00:50;15.94;69.66
72380;SHT30;60354;47.798;12.472;2023-06-26T03:03:18;15.96;69.62
72380;SHT30;60354;47.798;12.472;2023-06-26T03:05:44;15.73;69.77
72380;SHT30;60354;47.798;12.472;2023-06-26T03:08:09;15.56;69.92
72380;SHT30;60354;47.798;12.472;2023-06-26T03:10:35;15.57;69.99
72380;SHT30;60354;47.798;12.472;2023-06-26T03:13:00;15.39;70.68
72380;SHT30;60354;47.798;12.472;2023-06-26T03:15:26;15.29;70.75
72380;SHT30;60354;47.798;12.472;2023-06-26T03:17:53;15.35;70.92
72380;SHT30;60354;47.798;12.472;2023-06-26T03:20:23;15.19;70.79
72380;SHT30;60354;47.798;12.472;2023-06-26T03:22:53;15.32;70.76
72380;SHT30;60354;47.798;12.472;2023-06-26T03:25:20;15.39;70.84
72380;SHT30;60354;47.798;12.472;2023-06-26T03:27:46;15.49;70.72
72380;SHT30;60354;47.798;12.472;2023-06-26T03:30:13;15.46;70.82
72380;SHT30;60354;47.798;12.472;2023-06-26T03:32:41;15.57;70.45
72380;SHT30;60354;47.798;12.472;2023-06-26T03:35:07;15.63;70.23
72380;SHT30;60354;47.798;12.472;2023-06-26T03:37:33;15.67;70.19
72380;SHT30;60354;47.798;12.472;2023-06-26T03:39:58;15.70;70.31
72380;SHT30;60354;47.798;12.472;2023-06-26T03:42:24;15.67;70.22
72380;SHT30;60354;47.798;12.472;2023-06-26T03:44:49;15.62;70.42
72380;SHT30;60354;47.798;12.472;2023-06-26T03:47:17;15.76;70.25
72380;SHT30;60354;47.798;12.472;2023-06-26T03:49:42;15.74;70.26
72380;SHT30;60354;47.798;12.472;2023-06-26T03:52:09;15.74;70.67
72380;SHT30;60354;47.798;12.472;2023-06-26T03:54:34;15.71;70.49
72380;SHT30;60354;47.798;12.472;2023-06-26T03:57:00;15.76;70.68
72380;SHT30;60354;47.798;12.472;2023-06-26T03:59:25;15.85;70.68
72380;SHT30;60354;47.798;12.472;2023-06-26T04:01:51;15.96;70.34
72380;SHT30;60354;47.798;12.472;2023-06-26T04:04:16;15.96;70.46
72380;SHT30;60354;47.798;12.472;2023-06-26T04:06:42;15.98;70.21
72380;SHT30;60354;47.798;12.472;2023-06-26T04:09:07;16.07;69.70
72380;SHT30;60354;47.798;12.472;2023-06-26T04:11:33;16.20;69.30
72380;SHT30;60354;47.798;12.472;2023-06-26T04:13:58;16.29;69.57
72380;SHT30;60354;47.798;12.472;2023-06-26T04:16:25;16.34;69.85
72380;SHT30;60354;47.798;12.472;2023-06-26T04:18:51;16.31;70.44
72380;SHT30;60354;47.798;12.472;2023-06-26T04:21:17;16.08;70.41
72380;SHT30;60354;47.798;12.472;2023-06-26T04:23:43;16.13;70.43
72380;SHT30;60354;47.798;12.472;2023-06-26T04:26:08;16.08;70.63
72380;SHT30;60354;47.798;12.472;2023-06-26T04:28:34;16.11;70.43
72380;SHT30;60354;47.798;12.472;2023-06-26T04:31:01;16.16;70.11
72380;SHT30;60354;47.798;12.472;2023-06-26T04:33:26;16.31;69.43
72380;SHT30;60354;47.798;12.472;2023-06-26T04:35:52;16.47;68.60
72380;SHT30;60354;47.798;12.472;2023-06-26T04:38:19;16.61;67.47
72380;SHT30;60354;47.798;12.472;2023-06-26T04:40:45;16.75;67.29
72380;SHT30;60354;47.798;12.472;2023-06-26T04:43:10;16.86;67.16
72380;SHT30;60354;47.798;12.472;2023-06-26T04:45:36;16.96;66.69
72380;SHT30;60354;47.798;12.472;2023-06-26T04:48:02;17.07;66.27
72380;SHT30;60354;47.798;12.472;2023-06-26T04:50:27;17.16;65.64
72380;SHT30;60354;47.798;12.472;2023-06-26T04:52:57;17.26;65.76
72380;SHT30;60354;47.798;12.472;2023-06-26T04:55:24;17.34;65.69
72380;SHT30;60354;47.798;12.472;2023-06-26T04:57:50;17.44;65.40
72380;SHT30;60354;47.798;12.472;2023-06-26T05:00:15;17.51;65.17
72380;SHT30;60354;47.798;12.472;2023-06-26T05:02:41;17.66;65.07
72380;SHT30;60354;47.798;12.472;2023-06-26T05:05:07;17.71;64.90
72380;SHT30;60354;47.798;12.472;2023-06-26T05:07:33;17.74;64.71
72380;SHT30;60354;47.798;12.472;2023-06-26T05:09:58;17.79;64.46
72380;SHT30;60354;47.798;12.472;2023-06-26T05:12:23;17.89;64.03
72380;SHT30;60354;47.798;12.472;2023-06-26T05:14:49;17.99;64.10
72380;SHT30;60354;47.798;12.472;2023-06-26T05:17:14;18.21;63.25
72380;SHT30;60354;47.798;12.472;2023-06-26T05:19:40;18.47;62.70
72380;SHT30;60354;47.798;12.472;2023-06-26T05:22:07;18.87;61.66
72380;SHT30;60354;47.798;12.472;2023-06-26T05:24:35;19.24;61.20
72380;SHT30;60354;47.798;12.472;2023-06-26T05:27:01;19.62;60.70
72380;SHT30;60354;47.798;12.472;2023-06-26T05:29:27;19.97;59.78
72380;SHT30;60354;47.798;12.472;2023-06-26T05:31:53;20.30;58.47
72380;SHT30;60354;47.798;12.472;2023-06-26T05:34:20;20.69;56.94
72380;SHT30;60354;47.798;12.472;2023-06-26T05:36:49;21.06;56.15
72380;SHT30;60354;47.798;12.472;2023-06-26T05:39:16;21.43;55.36
72380;SHT30;60354;47.798;12.472;2023-06-26T05:41:43;21.80;54.51
72380;SHT30;60354;47.798;12.472;2023-06-26T05:44:09;22.17;53.32
72380;SHT30;60354;47.798;12.472;2023-06-26T05:46:34;22.52;52.96
72380;SHT30;60354;47.798;12.472;2023-06-26T05:49:00;22.82;52.56
72380;SHT30;60354;47.798;12.472;2023-06-26T05:51:27;23.07;52.31
72380;SHT30;60354;47.798;12.472;2023-06-26T05:53:53;23.47;51.55
72380;SHT30;60354;47.798;12.472;2023-06-26T05:56:19;23.67;50.69
72380;SHT30;60354;47.798;12.472;2023-06-26T05:58:45;23.89;49.97
72380;SHT30;60354;47.798;12.472;2023-06-26T06:01:11;24.06;49.29
72380;SHT30;60354;47.798;12.472;2023-06-26T06:03:36;24.29;49.11
72380;SHT30;60354;47.798;12.472;2023-06-26T06:06:03;24.36;48.59
72380;SHT30;60354;47.798;12.472;2023-06-26T06:08:29;24.50;48.13
72380;SHT30;60354;47.798;12.472;2023-06-26T06:10:54;24.68;48.27
72380;SHT30;60354;47.798;12.472;2023-06-26T06:13:19;24.87;48.24
72380;SHT30;60354;47.798;12.472;2023-06-26T06:15:45;25.11;47.54
72380;SHT30;60354;47.798;12.472;2023-06-26T06:18:10;25.24;47.72
72380;SHT30;60354;47.798;12.472;2023-06-26T06:20:36;25.49;47.13
72380;SHT30;60354;47.798;12.472;2023-06-26T06:23:01;25.63;46.69
72380;SHT30;60354;47.798;12.472;2023-06-26T06:25:27;25.82;46.37
72380;SHT30;60354;47.798;12.472;2023-06-26T06:27:52;25.94;46.65
72380;SHT30;60354;47.798;12.472;2023-06-26T06:30:18;25.97;45.97
72380;SHT30;60354;47.798;12.472;2023-06-26T06:32:43;26.14;45.59
72380;SHT30;60354;47.798;12.472;2023-06-26T06:35:09;26.36;46.00
72380;SHT30;60354;47.798;12.472;2023-06-26T06:37:38;26.64;45.17
72380;SHT30;60354;47.798;12.472;2023-06-26T06:40:05;26.75;45.28
72380;SHT30;60354;47.798;12.472;2023-06-26T06:42:31;26.86;45.04
72380;SHT30;60354;47.798;12.472;2023-06-26T06:44:58;26.86;44.46
72380;SHT30;60354;47.798;12.472;2023-06-26T06:47:23;27.03;44.88
72380;SHT30;60354;47.798;12.472;2023-06-26T06:49:49;27.03;43.98
72380;SHT30;60354;47.798;12.472;2023-06-26T06:52:14;27.30;43.80
72380;SHT30;60354;47.798;12.472;2023-06-26T06:54:57;27.54;43.29
72380;SHT30;60354;47.798;12.472;2023-06-26T06:57:26;27.00;44.27
72380;SHT30;60354;47.798;12.472;2023-06-26T06:59:52;27.32;43.89
72380;SHT30;60354;47.798;12.472;2023-06-26T07:02:17;27.30;44.02
72380;SHT30;60354;47.798;12.472;2023-06-26T07:04:43;27.50;43.70
72380;SHT30;60354;47.798;12.472;2023-06-26T07:07:08;27.73;44.47
72380;SHT30;60354;47.798;12.472;2023-06-26T07:09:35;27.27;43.79
72380;SHT30;60354;47.798;12.472;2023-06-26T07:12:01;27.19;44.15
72380;SHT30;60354;47.798;12.472;2023-06-26T07:14:26;27.37;43.44
72380;SHT30;60354;47.798;12.472;2023-06-26T07:16:52;27.40;43.92
72380;SHT30;60354;47.798;12.472;2023-06-26T07:19:17;27.51;43.51
72380;SHT30;60354;47.798;12.472;2023-06-26T07:21:42;27.74;44.10
72380;SHT30;60354;47.798;12.472;2023-06-26T07:24:10;27.97;41.83
72380;SHT30;60354;47.798;12.472;2023-06-26T07:26:36;28.15;42.72
72380;SHT30;60354;47.798;12.472;2023-06-26T07:29:01;28.53;42.02
72380;SHT30;60354;47.798;12.472;2023-06-26T07:31:27;28.56;41.22
72380;SHT30;60354;47.798;12.472;2023-06-26T07:33:52;28.82;40.78
72380;SHT30;60354;47.798;12.472;2023-06-26T07:36:17;28.89;41.17
72380;SHT30;60354;47.798;12.472;2023-06-26T07:38:43;28.96;41.25
72380;SHT30;60354;47.798;12.472;2023-06-26T07:41:08;29.08;40.46
72380;SHT30;60354;47.798;12.472;2023-06-26T07:43:34;28.87;41.46
72380;SHT30;60354;47.798;12.472;2023-06-26T07:45:59;29.10;41.10
72380;SHT30;60354;47.798;12.472;2023-06-26T07:48:25;29.47;41.35
72380;SHT30;60354;47.798;12.472;2023-06-26T07:50:50;29.66;40.84
72380;SHT30;60354;47.798;12.472;2023-06-26T07:53:16;29.82;40.07
72380;SHT30;60354;47.798;12.472;2023-06-26T07:55:42;29.92;40.53
72380;SHT30;60354;47.798;12.472;2023-06-26T07:58:08;30.12;40.20
72380;SHT30;60354;47.798;12.472;2023-06-26T08:00:33;30.20;40.63
72380;SHT30;60354;47.798;12.472;2023-06-26T08:02:59;30.36;38.51
72380;SHT30;60354;47.798;12.472;2023-06-26T08:05:24;30.68;37.67
72380;SHT30;60354;47.798;12.472;2023-06-26T08:07:50;30.43;37.57
72380;SHT30;60354;47.798;12.472;2023-06-26T08:10:15;30.52;36.74
72380;SHT30;60354;47.798;12.472;2023-06-26T08:12:42;30.36;37.30
72380;SHT30;60354;47.798;12.472;2023-06-26T08:15:10;30.74;36.52
72380;SHT30;60354;47.798;12.472;2023-06-26T08:17:35;30.92;36.25
72380;SHT30;60354;47.798;12.472;2023-06-26T08:20:02;30.44;38.17
72380;SHT30;60354;47.798;12.472;2023-06-26T08:22:27;29.86;39.16
72380;SHT30;60354;47.798;12.472;2023-06-26T08:24:53;29.30;39.40
72380;SHT30;60354;47.798;12.472;2023-06-26T08:27:18;29.18;39.00
72380;SHT30;60354;47.798;12.472;2023-06-26T08:29:43;29.81;39.55
72380;SHT30;60354;47.798;12.472;2023-06-26T08:32:09;29.28;40.06
72380;SHT30;60354;47.798;12.472;2023-06-26T08:34:34;29.13;40.04
72380;SHT30;60354;47.798;12.472;2023-06-26T08:37:00;29.13;40.84
72380;SHT30;60354;47.798;12.472;2023-06-26T08:39:25;29.06;41.44
72380;SHT30;60354;47.798;12.472;2023-06-26T08:41:51;29.06;41.21
72380;SHT30;60354;47.798;12.472;2023-06-26T08:44:16;29.30;40.34
72380;SHT30;60354;47.798;12.472;2023-06-26T08:46:43;28.70;40.71
72380;SHT30;60354;47.798;12.472;2023-06-26T08:49:20;28.93;40.39
72380;SHT30;60354;47.798;12.472;2023-06-26T08:52:19;28.17;42.25
72380;SHT30;60354;47.798;12.472;2023-06-26T08:54:52;28.35;41.97
72380;SHT30;60354;47.798;12.472;2023-06-26T08:57:20;28.83;41.42
72380;SHT30;60354;47.798;12.472;2023-06-26T08:59:47;28.92;41.08
72380;SHT30;60354;47.798;12.472;2023-06-26T09:02:14;29.62;40.83
72380;SHT30;60354;47.798;12.472;2023-06-26T09:04:39;29.31;40.27
72380;SHT30;60354;47.798;12.472;2023-06-26T09:07:05;29.37;39.87
72380;SHT30;60354;47.798;12.472;2023-06-26T09:09:31;29.38;39.04
72380;SHT30;60354;47.798;12.472;2023-06-26T09:11:56;30.02;39.29
72380;SHT30;60354;47.798;12.472;2023-06-26T09:14:22;29.95;41.18
72380;SHT30;60354;47.798;12.472;2023-06-26T09:16:48;29.54;39.92
72380;SHT30;60354;47.798;12.472;2023-06-26T09:19:14;29.51;40.51
72380;SHT30;60354;47.798;12.472;2023-06-26T09:21:40;29.04;41.48
72380;SHT30;60354;47.798;12.472;2023-06-26T09:24:09;28.67;41.97
72380;SHT30;60354;47.798;12.472;2023-06-26T09:26:36;29.04;40.53
72380;SHT30;60354;47.798;12.472;2023-06-26T09:29:03;29.38;39.35
72380;SHT30;60354;47.798;12.472;2023-06-26T09:31:28;29.72;38.91
72380;SHT30;60354;47.798;12.472;2023-06-26T09:34:00;29.85;39.54
72380;SHT30;60354;47.798;12.472;2023-06-26T09:36:30;29.58;39.70
72380;SHT30;60354;47.798;12.472;2023-06-26T09:39:01;30.08;39.82
72380;SHT30;60354;47.798;12.472;2023-06-26T09:41:26;30.12;39.90
72380;SHT30;60354;47.798;12.472;2023-06-26T09:43:52;30.37;38.38
72380;SHT30;60354;47.798;12.472;2023-06-26T09:46:25;30.54;38.42
72380;SHT30;60354;47.798;12.472;2023-06-26T09:49:06;31.16;38.26
72380;SHT30;60354;47.798;12.472;2023-06-26T09:51:36;31.10;38.28
72380;SHT30;60354;47.798;12.472;2023-06-26T09:54:03;31.34;38.63
72380;SHT30;60354;47.798;12.472;2023-06-26T09:56:29;31.24;38.76
72380;SHT30;60354;47.798;12.472;2023-06-26T09:59:00;30.99;39.89
72380;SHT30;60354;47.798;12.472;2023-06-26T10:01:27;30.27;41.52
72380;SHT30;60354;47.798;12.472;2023-06-26T10:03:53;29.82;42.33
72380;SHT30;60354;47.798;12.472;2023-06-26T10:06:31;30.73;40.83
72380;SHT30;60354;47.798;12.472;2023-06-26T10:08:59;30.74;40.60
72380;SHT30;60354;47.798;12.472;2023-06-26T10:11:32;30.50;40.14
72380;SHT30;60354;47.798;12.472;2023-06-26T10:14:01;30.71;39.33
72380;SHT30;60354;47.798;12.472;2023-06-26T10:16:30;30.50;39.29
72380;SHT30;60354;47.798;12.472;2023-06-26T10:19:02;30.71;38.63
72380;SHT30;60354;47.798;12.472;2023-06-26T10:21:29;30.94;38.42
72380;SHT30;60354;47.798;12.472;2023-06-26T10:23:57;30.73;39.30
72380;SHT30;60354;47.798;12.472;2023-06-26T10:26:24;30.88;40.39
72380;SHT30;60354;47.798;12.472;2023-06-26T10:28:52;30.95;39.74
72380;SHT30;60354;47.798;12.472;2023-06-26T10:31:21;30.99;39.63
72380;SHT30;60354;47.798;12.472;2023-06-26T10:33:49;31.10;39.01
72380;SHT30;60354;47.798;12.472;2023-06-26T10:38:57;31.67;37.54
72380;SHT30;60354;47.798;12.472;2023-06-26T10:41:24;31.79;37.69
72380;SHT30;60354;47.798;12.472;2023-06-26T10:44:15;31.56;37.91
72380;SHT30;60354;47.798;12.472;2023-06-26T10:46:52;32.14;37.19
72380;SHT30;60354;47.798;12.472;2023-06-26T10:49:25;31.46;37.69
72380;SHT30;60354;47.798;12.472;2023-06-26T10:51:52;31.39;39.30
72380;SHT30;60354;47.798;12.472;2023-06-26T10:54:19;31.67;37.84
72380;SHT30;60354;47.798;12.472;2023-06-26T10:56:53;31.42;38.52
72380;SHT30;60354;47.798;12.472;2023-06-26T10:59:24;31.55;40.11
72380;SHT30;60354;47.798;12.472;2023-06-26T11:02:01;31.79;38.88
72380;SHT30;60354;47.798;12.472;2023-06-26T11:04:38;31.56;39.14
72380;SHT30;60354;47.798;12.472;2023-06-26T11:07:23;31.86;37.94
72380;SHT30;60354;47.798;12.472;2023-06-26T11:12:40;31.05;40.45
72380;SHT30;60354;47.798;12.472;2023-06-26T11:15:12;31.04;39.20
72380;SHT30;60354;47.798;12.472;2023-06-26T11:17:39;30.94;39.46
72380;SHT30;60354;47.798;12.472;2023-06-26T11:20:10;31.07;38.40
72380;SHT30;60354;47.798;12.472;2023-06-26T11:22:37;31.59;38.31
72380;SHT30;60354;47.798;12.472;2023-06-26T11:25:03;31.61;38.09
72380;SHT30;60354;47.798;12.472;2023-06-26T11:27:43;31.53;39.17
72380;SHT30;60354;47.798;12.472;2023-06-26T11:30:10;31.24;39.60
72380;SHT30;60354;47.798;12.472;2023-06-26T11:32:37;31.36;39.25
72380;SHT30;60354;47.798;12.472;2023-06-26T11:35:03;31.26;38.50
72380;SHT30;60354;47.798;12.472;2023-06-26T11:37:30;31.36;40.79
72380;SHT30;60354;47.798;12.472;2023-06-26T11:39:56;31.12;38.67
72380;SHT30;60354;47.798;12.472;2023-06-26T11:42:21;31.02;39.50
72380;SHT30;60354;47.798;12.472;2023-06-26T11:44:47;30.47;41.05
72380;SHT30;60354;47.798;12.472;2023-06-26T11:47:17;30.64;41.06
72380;SHT30;60354;47.798;12.472;2023-06-26T11:49:48;30.26;40.98
72380;SHT30;60354;47.798;12.472;2023-06-26T11:52:14;29.98;41.02
72380;SHT30;60354;47.798;12.472;2023-06-26T11:54:41;29.89;41.05
72380;SHT30;60354;47.798;12.472;2023-06-26T11:57:07;30.08;41.98
72380;SHT30;60354;47.798;12.472;2023-06-26T11:59:37;30.41;40.18
72380;SHT30;60354;47.798;12.472;2023-06-26T12:02:09;30.73;38.89
72380;SHT30;60354;47.798;12.472;2023-06-26T12:04:41;30.56;38.71
72380;SHT30;60354;47.798;12.472;2023-06-26T12:07:07;30.54;38.91
72380;SHT30;60354;47.798;12.472;2023-06-26T12:09:41;30.91;38.58
72380;SHT30;60354;47.798;12.472;2023-06-26T12:12:08;31.14;37.64
72380;SHT30;60354;47.798;12.472;2023-06-26T12:14:33;30.83;37.68
72380;SHT30;60354;47.798;12.472;2023-06-26T12:17:09;31.21;37.88
72380;SHT30;60354;47.798;12.472;2023-06-26T12:19:37;30.66;38.85
72380;SHT30;60354;47.798;12.472;2023-06-26T12:22:07;30.39;39.44
72380;SHT30;60354;47.798;12.472;2023-06-26T12:24:33;30.43;39.49
72380;SHT30;60354;47.798;12.472;2023-06-26T12:27:00;30.12;40.03
72380;SHT30;60354;47.798;12.472;2023-06-26T12:29:32;30.53;39.74
72380;SHT30;60354;47.798;12.472;2023-06-26T12:31:58;31.01;38.76
72380;SHT30;60354;47.798;12.472;2023-06-26T12:34:47;30.77;39.53
72380;SHT30;60354;47.798;12.472;2023-06-26T12:37:13;30.74;38.14
72380;SHT30;60354;47.798;12.472;2023-06-26T12:39:47;30.88;37.08
72380;SHT30;60354;47.798;12.472;2023-06-26T12:42:16;31.16;36.57
72380;SHT30;60354;47.798;12.472;2023-06-26T12:44:43;31.21;34.71
72380;SHT30;60354;47.798;12.472;2023-06-26T12:47:08;31.55;35.43
72380;SHT30;60354;47.798;12.472;2023-06-26T12:49:36;31.10;37.02
72380;SHT30;60354;47.798;12.472;2023-06-26T12:52:04;30.59;36.33
72380;SHT30;60354;47.798;12.472;2023-06-26T12:54:30;30.48;37.18
72380;SHT30;60354;47.798;12.472;2023-06-26T12:56:55;30.60;36.58
72380;SHT30;60354;47.798;12.472;2023-06-26T12:59:21;30.47;36.53
72380;SHT30;60354;47.798;12.472;2023-06-26T13:01:47;30.54;36.16
72380;SHT30;60354;47.798;12.472;2023-06-26T13:04:13;31.02;36.69
72380;SHT30;60354;47.798;12.472;2023-06-26T13:06:39;31.08;35.57
72380;SHT30;60354;47.798;12.472;2023-06-26T13:09:04;31.15;36.97
72380;SHT30;60354;47.798;12.472;2023-06-26T13:11:30;31.42;36.09
72380;SHT30;60354;47.798;12.472;2023-06-26T13:13:56;31.70;34.41
72380;SHT30;60354;47.798;12.472;2023-06-26T13:16:22;31.43;35.71
72380;SHT30;60354;47.798;12.472;2023-06-26T13:18:47;31.43;35.23
72380;SHT30;60354;47.798;12.472;2023-06-26T13:21:14;31.22;35.08
72380;SHT30;60354;47.798;12.472;2023-06-26T13:23:39;31.08;35.35
72380;SHT30;60354;47.798;12.472;2023-06-26T13:26:05;30.81;35.53
72380;SHT30;60354;47.798;12.472;2023-06-26T13:28:31;30.70;36.41
72380;SHT30;60354;47.798;12.472;2023-06-26T13:30:57;30.61;35.55
72380;SHT30;60354;47.798;12.472;2023-06-26T13:33:22;30.77;35.74
72380;SHT30;60354;47.798;12.472;2023-06-26T13:35:51;31.08;35.51
72380;SHT30;60354;47.798;12.472;2023-06-26T13:38:20;31.21;35.02
72380;SHT30;60354;47.798;12.472;2023-06-26T13:40:53;31.24;34.91
72380;SHT30;60354;47.798;12.472;2023-06-26T13:43:21;30.92;35.91
72380;SHT30;60354;47.798;12.472;2023-06-26T13:45:47;30.98;35.58
72380;SHT30;60354;47.798;12.472;2023-06-26T13:48:13;31.34;35.78
72380;SHT30;60354;47.798;12.472;2023-06-26T13:50:38;31.24;35.27
72380;SHT30;60354;47.798;12.472;2023-06-26T13:53:04;31.25;34.98
72380;SHT30;60354;47.798;12.472;2023-06-26T13:55:30;30.87;36.27
72380;SHT30;60354;47.798;12.472;2023-06-26T13:57:56;31.11;36.08
72380;SHT30;60354;47.798;12.472;2023-06-26T14:00:22;31.26;37.35
72380;SHT30;60354;47.798;12.472;2023-06-26T14:02:51;31.05;35.40
72380;SHT30;60354;47.798;12.472;2023-06-26T14:05:17;31.39;35.37
72380;SHT30;60354;47.798;12.472;2023-06-26T14:07:44;31.01;36.61
72380;SHT30;60354;47.798;12.472;2023-06-26T14:10:10;30.98;36.32
72380;SHT30;60354;47.798;12.472;2023-06-26T14:12:35;30.91;35.92
72380;SHT30;60354;47.798;12.472;2023-06-26T14:15:01;31.01;37.24
72380;SHT30;60354;47.798;12.472;2023-06-26T14:17:26;31.29;36.03
72380;SHT30;60354;47.798;12.472;2023-06-26T14:19:52;31.34;36.20
72380;SHT30;60354;47.798;12.472;2023-06-26T14:22:18;31.45;36.87
72380;SHT30;60354;47.798;12.472;2023-06-26T14:24:44;31.52;35.94
72380;SHT30;60354;47.798;12.472;2023-06-26T14:27:09;31.19;35.94
72380;SHT30;60354;47.798;12.472;2023-06-26T14:29:36;31.25;36.01
72380;SHT30;60354;47.798;12.472;2023-06-26T14:32:01;31.31;35.76
72380;SHT30;60354;47.798;12.472;2023-06-26T14:34:27;31.19;35.47
72380;SHT30;60354;47.798;12.472;2023-06-26T14:36:52;31.18;36.82
72380;SHT30;60354;47.798;12.472;2023-06-26T14:39:18;31.18;37.59
72380;SHT30;60354;47.798;12.472;2023-06-26T14:41:43;31.08;36.06
72380;SHT30;60354;47.798;12.472;2023-06-26T14:44:09;31.42;36.41
72380;SHT30;60354;47.798;12.472;2023-06-26T14:46:36;31.52;36.44
72380;SHT30;60354;47.798;12.472;2023-06-26T14:49:02;31.59;37.14
72380;SHT30;60354;47.798;12.472;2023-06-26T14:51:28;31.61;35.56
72380;SHT30;60354;47.798;12.472;2023-06-26T14:53:54;31.45;35.47
72380;SHT30;60354;47.798;12.472;2023-06-26T14:56:19;31.35;36.37
72380;SHT30;60354;47.798;12.472;2023-06-26T14:58:44;31.26;36.83
72380;SHT30;60354;47.798;12.472;2023-06-26T15:01:12;31.14;36.38
72380;SHT30;60354;47.798;12.472;2023-06-26T15:03:40;31.08;37.24
72380;SHT30;60354;47.798;12.472;2023-06-26T15:06:05;30.92;36.74
72380;SHT30;60354;47.798;12.472;2023-06-26T15:08:31;31.10;36.98
72380;SHT30;60354;47.798;12.472;2023-06-26T15:10:56;31.12;37.70
72380;SHT30;60354;47.798;12.472;2023-06-26T15:13:22;31.24;36.08
72380;SHT30;60354;47.798;12.472;2023-06-26T15:15:47;31.08;34.78
72380;SHT30;60354;47.798;12.472;2023-06-26T15:18:13;30.78;35.17
72380;SHT30;60354;47.798;12.472;2023-06-26T15:20:38;30.91;35.60
72380;SHT30;60354;47.798;12.472;2023-06-26T15:23:04;30.75;35.40
72380;SHT30;60354;47.798;12.472;2023-06-26T15:25:29;30.84;35.92
72380;SHT30;60354;47.798;12.472;2023-06-26T15:27:57;30.92;35.95
72380;SHT30;60354;47.798;12.472;2023-06-26T15:30:22;31.02;37.31